createdAt,value
2022-09-20T00:06:31.636Z,10.40
2022-09-20T00:16:54.627Z,10.40
2022-09-20T00:27:16.264Z,10.20
2022-09-20T00:37:42.201Z,10.20
2022-09-20T00:48:08.303Z,10.00
2022-09-20T00:58:33.803Z,10.00
2022-09-20T01:08:58.336Z,9.90
2022-09-20T01:19:32.002Z,9.80
2022-09-20T01:30:06.135Z,9.70
2022-09-20T01:40:36.683Z,9.40
2022-09-20T01:51:26.144Z,9.50
2022-09-20T02:02:08.700Z,9.30
2022-09-20T02:12:52.993Z,9.30
2022-09-20T02:23:23.219Z,9.30
2022-09-20T02:34:00.030Z,9.40
2022-09-20T02:44:46.998Z,9.40
2022-09-20T02:55:17.874Z,9.60
2022-09-20T03:05:50.838Z,9.80
2022-09-20T03:16:22.387Z,10.10
2022-09-20T03:26:56.467Z,10.20
2022-09-20T03:37:35.635Z,10.10
2022-09-20T03:48:53.703Z,10.10
2022-09-20T03:59:34.563Z,10.10
2022-09-20T04:10:17.572Z,10.30
2022-09-20T04:20:46.208Z,10.50
2022-09-20T04:31:20.965Z,10.60
2022-09-20T04:42:16.258Z,10.80
2022-09-20T04:53:11.773Z,10.80
2022-09-20T05:03:59.927Z,10.80
2022-09-20T05:14:46.904Z,10.70
2022-09-20T05:25:52.033Z,11.00
2022-09-20T05:36:23.517Z,10.90
2022-09-20T05:46:57.094Z,11.10
2022-09-20T05:57:33.950Z,11.60
2022-09-20T06:08:24.344Z,11.90
2022-09-20T06:18:56.493Z,12.00
2022-09-20T06:29:30.156Z,12.50
2022-09-20T06:40:18.461Z,12.70
2022-09-20T06:50:40.382Z,13.00
2022-09-20T07:01:03.269Z,13.60
2022-09-20T07:11:25.339Z,13.10
2022-09-20T07:21:48.445Z,12.90
2022-09-20T07:32:09.611Z,13.30
2022-09-20T07:42:32.451Z,13.40
2022-09-20T07:52:57.199Z,13.40
2022-09-20T08:03:20.069Z,12.60
2022-09-20T08:24:27.152Z,14.70
2022-09-20T08:34:49.593Z,15.20
2022-09-20T08:45:34.414Z,15.80
2022-09-20T08:55:57.865Z,15.40
2022-09-20T09:06:24.890Z,15.70
2022-09-20T09:16:46.450Z,16.30
2022-09-20T09:27:16.635Z,16.20
2022-09-20T09:37:38.934Z,16.30
2022-09-20T09:48:02.881Z,17.30
2022-09-20T09:58:36.685Z,16.40
2022-09-20T10:09:17.977Z,17.40
2022-09-20T10:19:54.301Z,16.90
2022-09-20T10:30:19.866Z,17.20
2022-09-20T10:41:07.592Z,17.00
2022-09-20T10:51:43.231Z,16.90
2022-09-20T11:02:17.012Z,17.30
2022-09-20T11:12:43.783Z,15.60
2022-09-20T11:23:15.042Z,14.80
2022-09-20T11:33:43.214Z,14.80
2022-09-20T11:44:08.056Z,12.40
2022-09-20T11:54:49.739Z,11.40
2022-09-20T12:05:27.086Z,12.70
2022-09-20T12:16:00.026Z,13.70
2022-09-20T12:26:39.155Z,13.60
2022-09-20T12:37:24.911Z,14.60
2022-09-20T12:47:55.704Z,15.20
2022-09-20T12:58:32.894Z,16.20
2022-09-20T13:08:59.106Z,16.70
2022-09-20T13:19:25.930Z,16.50
2022-09-20T13:29:47.923Z,15.50
2022-09-20T13:40:19.631Z,14.90
2022-09-20T13:50:46.331Z,15.20
2022-09-20T14:01:29.022Z,14.50
2022-09-20T14:11:51.152Z,15.10
2022-09-20T14:22:20.255Z,15.00
2022-09-20T14:32:48.064Z,16.00
2022-09-20T14:43:25.110Z,16.60
2022-09-20T14:53:47.933Z,16.80
2022-09-20T15:04:18.766Z,16.00
2022-09-20T15:14:41.422Z,16.20
2022-09-20T15:25:04.682Z,15.20
2022-09-20T15:35:26.181Z,15.20
2022-09-20T15:45:51.491Z,15.80
2022-09-20T15:56:17.702Z,15.60
2022-09-20T16:06:42.145Z,15.50
2022-09-20T16:17:03.798Z,14.30
2022-09-20T16:27:26.754Z,14.20
2022-09-20T16:37:48.403Z,13.90
2022-09-20T16:48:11.589Z,13.80
2022-09-20T16:58:33.921Z,13.70
2022-09-20T17:08:59.200Z,13.40
2022-09-20T17:19:22.018Z,13.10
2022-09-20T17:29:45.451Z,13.10
2022-09-20T17:40:10.925Z,12.80
2022-09-20T17:50:41.149Z,12.70
2022-09-20T18:01:12.986Z,12.00
2022-09-20T18:11:39.538Z,12.10
2022-09-20T18:22:01.144Z,12.30
2022-09-20T18:32:26.877Z,12.10
2022-09-20T18:42:51.664Z,12.20
2022-09-20T18:53:14.572Z,11.90
2022-09-20T19:03:51.504Z,11.80
2022-09-20T19:14:24.397Z,11.70
2022-09-20T19:25:01.652Z,11.70
2022-09-20T19:35:33.510Z,11.30
2022-09-20T19:46:03.573Z,11.30
2022-09-20T19:56:29.762Z,11.10
2022-09-20T20:07:00.746Z,11.30
2022-09-20T20:17:42.286Z,10.90
2022-09-20T20:28:03.773Z,10.40
2022-09-20T20:38:27.908Z,10.60
2022-09-20T20:48:49.356Z,10.60
2022-09-20T20:59:12.252Z,10.50
2022-09-20T21:09:33.764Z,10.40
2022-09-20T21:19:56.439Z,10.30
2022-09-20T21:30:18.639Z,10.30
2022-09-20T21:40:41.857Z,10.30
2022-09-20T21:51:06.203Z,10.20
2022-09-20T22:01:30.298Z,10.10
2022-09-20T22:11:51.829Z,10.10
2022-09-20T22:22:14.534Z,10.00
2022-09-20T22:32:35.760Z,9.90
2022-09-20T22:42:58.534Z,10.00
2022-09-20T22:53:19.902Z,9.90
2022-09-20T23:03:44.750Z,9.70
2022-09-20T23:14:07.408Z,9.70
2022-09-20T23:24:31.068Z,9.70
2022-09-20T23:34:52.917Z,9.70
2022-09-20T23:45:15.646Z,9.30
2022-09-20T23:55:36.985Z,9.30
